Robert Lee, Texas
Current Conditions -  °F | °C
As of 12:51 PM on Wednesday 26 Nov 2014 (Local Time) from KSJT Reporting Station
Clear Clear  
Wind Chill: 66°   Ceiling: Unl
Heat Index: 66°   Visibility: 10mi
Dew Point: 22°   Wind: 9mph
Humidity: 19%   Direction: 350°N
Pressure: 30.22"   Gusts: NA
Location:  31.89°N, 100.48°W
Report Text: KSJT 261851Z 35008KT 10SM CLR 19/M06 A3022 RMK AO2 SLP230 T01891056
Loading
Personal Weather Stations






























Interactive Weather Map New forecast layout! Learn more

10-Day Weather Forecast

Advertisements
Track Severe Weather on mobile